createdAt,value
2022-12-26T00:02:10.559Z,92831.72
2022-12-26T00:04:52.359Z,92853.41
2022-12-26T00:07:25.716Z,92845.91
2022-12-26T00:09:58.793Z,92832.72
2022-12-26T00:12:31.139Z,92840.13
2022-12-26T00:15:03.908Z,92837.78
2022-12-26T00:17:36.289Z,92840.38
2022-12-26T00:20:09.687Z,92849.63
2022-12-26T00:22:41.976Z,92852.63
2022-12-26T00:25:15.254Z,92854.22
2022-12-26T00:27:47.836Z,92858.13
2022-12-26T00:30:20.253Z,92854.78
2022-12-26T00:32:53.942Z,92864.06
2022-12-26T00:35:26.328Z,92858.50
2022-12-26T00:37:59.747Z,92856.34
2022-12-26T00:40:32.838Z,92859.13
2022-12-26T00:43:05.153Z,92860.91
2022-12-26T00:45:37.469Z,92861.56
2022-12-26T00:48:10.094Z,92858.97
2022-12-26T00:50:42.510Z,92869.06
2022-12-26T00:53:14.852Z,92868.28
2022-12-26T00:55:48.746Z,92863.41
2022-12-26T00:58:21.981Z,92864.00
2022-12-26T01:00:55.055Z,92866.34
2022-12-26T01:03:27.439Z,92865.38
2022-12-26T01:06:02.595Z,92871.06
2022-12-26T01:08:34.961Z,92869.84
2022-12-26T01:11:11.681Z,92873.84
2022-12-26T01:13:44.065Z,92865.78
2022-12-26T01:16:18.932Z,92868.91
2022-12-26T01:18:51.289Z,92880.63
2022-12-26T01:21:23.696Z,92877.84
2022-12-26T01:23:56.039Z,92886.69
2022-12-26T01:26:29.173Z,92894.41
2022-12-26T01:29:01.956Z,92896.63
2022-12-26T01:31:34.410Z,92891.97
2022-12-26T01:34:06.753Z,92889.56
2022-12-26T01:36:39.201Z,92889.22
2022-12-26T01:39:11.600Z,92880.50
2022-12-26T01:41:44.656Z,92880.50
2022-12-26T01:44:55.097Z,92870.44
2022-12-26T01:47:38.463Z,92867.06
2022-12-26T01:50:25.167Z,92871.00
2022-12-26T01:53:02.469Z,92868.66
2022-12-26T01:55:34.823Z,92871.00
2022-12-26T01:58:12.416Z,92870.44
2022-12-26T02:00:44.882Z,92859.94
2022-12-26T02:03:36.051Z,92855.56
2022-12-26T02:06:10.301Z,92845.59
2022-12-26T02:08:44.831Z,92850.59
2022-12-26T02:11:21.258Z,92863.78
2022-12-26T02:13:54.837Z,92849.38
2022-12-26T02:16:27.361Z,92846.41
2022-12-26T02:18:59.859Z,92849.03
2022-12-26T02:22:10.282Z,92849.03
2022-12-26T02:25:03.373Z,92851.41
2022-12-26T02:27:52.729Z,92851.81
2022-12-26T02:30:36.540Z,92842.19
2022-12-26T02:33:25.402Z,92847.69
2022-12-26T02:36:22.326Z,92845.09
2022-12-26T02:39:44.411Z,92844.75
2022-12-26T02:42:09.421Z,92849.44
2022-12-26T02:45:04.983Z,92848.53
2022-12-26T02:47:46.352Z,92846.19
2022-12-26T02:50:48.511Z,92844.63
2022-12-26T02:53:50.643Z,92843.41
2022-12-26T02:56:49.251Z,92838.47
2022-12-26T02:59:55.052Z,92841.84
2022-12-26T03:02:52.801Z,92839.13
2022-12-26T03:05:49.605Z,92830.47
2022-12-26T03:08:48.355Z,92836.91
2022-12-26T03:11:40.842Z,92841.84
2022-12-26T03:14:17.115Z,92831.78
2022-12-26T03:17:15.032Z,92836.09
2022-12-26T03:20:02.180Z,92839.03
2022-12-26T03:22:40.742Z,92840.03
2022-12-26T03:25:37.529Z,92838.47
2022-12-26T03:28:10.003Z,92842.59
2022-12-26T03:30:48.782Z,92844.81
2022-12-26T03:33:44.610Z,92845.63
2022-12-26T03:36:24.066Z,92846.63
2022-12-26T03:39:07.016Z,92847.38
2022-12-26T03:42:05.744Z,92848.38
2022-12-26T03:45:05.533Z,92855.09
2022-12-26T03:48:00.247Z,92857.88
2022-12-26T03:50:54.960Z,92862.88
2022-12-26T03:54:05.111Z,92860.72
2022-12-26T03:57:03.689Z,92866.88
2022-12-26T04:00:00.398Z,92878.91
2022-12-26T04:02:53.129Z,92866.44
2022-12-26T04:05:44.747Z,92873.22
2022-12-26T04:08:41.851Z,92868.44
2022-12-26T04:11:35.283Z,92867.78
2022-12-26T04:14:36.917Z,92861.28
2022-12-26T04:17:34.960Z,92858.72
2022-12-26T04:20:16.391Z,92857.25
2022-12-26T04:23:12.108Z,92857.00
2022-12-26T04:26:07.738Z,92858.00
2022-12-26T04:28:58.296Z,92867.88
2022-12-26T04:31:54.612Z,92862.13
2022-12-26T04:34:55.965Z,92865.16
2022-12-26T04:37:48.502Z,92858.72
2022-12-26T04:40:44.392Z,92869.19
2022-12-26T04:43:49.689Z,92867.22
2022-12-26T04:46:25.288Z,92878.88
2022-12-26T04:49:17.837Z,92877.13
2022-12-26T04:51:50.904Z,92859.69
2022-12-26T04:54:23.363Z,92872.59
2022-12-26T04:56:55.918Z,92877.84
2022-12-26T04:59:28.636Z,92872.31
2022-12-26T05:02:19.742Z,92878.84
2022-12-26T05:05:10.980Z,92873.09
2022-12-26T05:08:01.691Z,92876.66
2022-12-26T05:10:34.073Z,92875.09
2022-12-26T05:13:06.336Z,92863.09
2022-12-26T05:15:53.393Z,92883.78
2022-12-26T05:18:43.520Z,92886.00
2022-12-26T05:21:36.972Z,92890.72
2022-12-26T05:24:28.232Z,92895.78
2022-12-26T05:27:18.680Z,92914.72
2022-12-26T05:29:51.095Z,92914.41
2022-12-26T05:32:41.548Z,92908.88
2022-12-26T05:35:13.931Z,92912.56
2022-12-26T05:37:46.982Z,92907.44
2022-12-26T05:40:19.359Z,92911.84
2022-12-26T05:42:51.759Z,92910.28
2022-12-26T05:45:24.233Z,92907.53
2022-12-26T05:47:58.544Z,92908.34
2022-12-26T05:50:30.832Z,92907.69
2022-12-26T05:53:04.208Z,92910.91
2022-12-26T05:55:36.538Z,92913.22
2022-12-26T05:58:08.996Z,92911.25
2022-12-26T06:00:41.323Z,92907.69
2022-12-26T06:03:13.901Z,92901.94
2022-12-26T06:05:46.293Z,92905.91
2022-12-26T06:08:19.344Z,92905.88
2022-12-26T06:10:51.714Z,92908.44
2022-12-26T06:13:24.425Z,92902.09
2022-12-26T06:15:57.857Z,92894.81
2022-12-26T06:18:30.568Z,92900.72
2022-12-26T06:21:05.484Z,92912.50
2022-12-26T06:23:39.171Z,92906.78
2022-12-26T06:26:12.239Z,92909.28
2022-12-26T06:28:45.990Z,92912.81
2022-12-26T06:31:21.695Z,92917.16
2022-12-26T06:33:57.881Z,92913.75
2022-12-26T06:36:30.437Z,92919.50
2022-12-26T06:39:03.547Z,92916.91
2022-12-26T06:41:35.873Z,92911.97
2022-12-26T06:44:16.123Z,92917.44
2022-12-26T06:46:50.429Z,92916.25
2022-12-26T06:49:32.209Z,92916.25
2022-12-26T06:52:05.544Z,92894.97
2022-12-26T06:54:38.834Z,92910.06
2022-12-26T06:57:11.200Z,92915.97
2022-12-26T06:59:43.612Z,92917.34
2022-12-26T07:02:16.043Z,92921.06
2022-12-26T07:04:48.564Z,92924.78
2022-12-26T07:07:20.902Z,92925.78
2022-12-26T07:09:53.992Z,92931.06
2022-12-26T07:12:26.288Z,92931.22
2022-12-26T07:15:01.580Z,92927.81
2022-12-26T07:17:36.384Z,92930.53
2022-12-26T07:20:10.549Z,92930.34
2022-12-26T07:22:42.869Z,92931.81
2022-12-26T07:25:16.015Z,92942.84
2022-12-26T07:27:52.183Z,92943.97
2022-12-26T07:30:24.572Z,92940.78
2022-12-26T07:32:58.396Z,92940.94
2022-12-26T07:35:30.808Z,92946.06
2022-12-26T07:38:03.112Z,92937.22
2022-12-26T07:40:36.205Z,92939.88
2022-12-26T07:43:08.507Z,92935.00
2022-12-26T07:45:45.590Z,92942.56
2022-12-26T07:48:18.551Z,92937.94
2022-12-26T07:50:51.447Z,92940.19
2022-12-26T07:53:23.728Z,92942.25
2022-12-26T07:55:59.233Z,92940.72
2022-12-26T07:58:31.693Z,92939.97
2022-12-26T08:01:05.871Z,92940.38
2022-12-26T08:03:38.343Z,92942.75
2022-12-26T08:06:11.324Z,92936.63
2022-12-26T08:08:50.256Z,92943.91
2022-12-26T08:11:24.700Z,92938.31
2022-12-26T08:13:57.371Z,92940.03
2022-12-26T08:16:30.546Z,92945.50
2022-12-26T08:19:03.344Z,92937.88
2022-12-26T08:21:35.764Z,92938.50
2022-12-26T08:24:08.208Z,92945.41
2022-12-26T08:26:41.320Z,92952.44
2022-12-26T08:29:13.640Z,92954.19
2022-12-26T08:31:46.077Z,92954.00
2022-12-26T08:34:18.652Z,92959.66
2022-12-26T08:36:51.559Z,92957.31
2022-12-26T08:39:23.897Z,92951.31
2022-12-26T08:41:56.882Z,92951.47
2022-12-26T08:44:29.455Z,92940.38
2022-12-26T08:47:01.913Z,92941.78
2022-12-26T08:49:34.213Z,92937.75
2022-12-26T08:52:07.184Z,92926.00
2022-12-26T08:54:39.503Z,92932.09
2022-12-26T08:57:13.205Z,92927.28
2022-12-26T08:59:45.524Z,92920.19
2022-12-26T09:02:18.073Z,92927.28
2022-12-26T09:04:50.501Z,92922.69
2022-12-26T09:07:24.219Z,92932.34
2022-12-26T09:09:56.608Z,92925.44
2022-12-26T09:12:29.613Z,92921.47
2022-12-26T09:15:01.957Z,92908.69
2022-12-26T09:17:34.430Z,92915.06
2022-12-26T09:20:07.854Z,92917.25
2022-12-26T09:22:51.975Z,92918.16
2022-12-26T09:25:25.526Z,92914.41
2022-12-26T09:27:59.516Z,92903.66
2022-12-26T09:30:32.027Z,92902.78
2022-12-26T09:33:07.089Z,92907.56
2022-12-26T09:35:39.636Z,92907.97
2022-12-26T09:38:12.049Z,92905.94
2022-12-26T09:40:55.180Z,92907.81
2022-12-26T09:43:49.802Z,92906.31
2022-12-26T09:46:30.568Z,92905.84
2022-12-26T09:49:09.935Z,92899.09
2022-12-26T09:51:49.227Z,92893.63
2022-12-26T09:54:31.141Z,92901.16
2022-12-26T09:57:14.814Z,92892.84
2022-12-26T09:59:53.869Z,92895.94
2022-12-26T10:02:26.569Z,92889.66
2022-12-26T10:04:59.238Z,92891.72
2022-12-26T10:07:40.228Z,92889.28
2022-12-26T10:10:16.091Z,92883.75
2022-12-26T10:12:58.039Z,92883.38
2022-12-26T10:15:41.601Z,92878.59
2022-12-26T10:18:29.786Z,92879.00
2022-12-26T10:21:15.766Z,92882.25
2022-12-26T10:23:51.197Z,92882.31
2022-12-26T10:26:29.611Z,92872.84
2022-12-26T10:29:10.575Z,92870.00
2022-12-26T10:31:47.967Z,92867.19
2022-12-26T10:34:24.089Z,92865.78
2022-12-26T10:37:00.357Z,92860.47
2022-12-26T10:39:37.161Z,92860.22
2022-12-26T10:42:22.054Z,92861.59
2022-12-26T10:44:54.530Z,92849.81
2022-12-26T10:47:30.304Z,92851.34
2022-12-26T10:50:03.900Z,92851.56
2022-12-26T10:52:39.580Z,92849.09
2022-12-26T10:55:28.492Z,92846.75
2022-12-26T10:58:09.105Z,92855.09
2022-12-26T11:00:41.741Z,92849.06
2022-12-26T11:03:17.034Z,92844.56
2022-12-26T11:06:08.804Z,92834.78
2022-12-26T11:08:48.830Z,92837.13
2022-12-26T11:11:24.328Z,92829.75
2022-12-26T11:14:02.114Z,92829.47
2022-12-26T11:16:38.491Z,92820.56
2022-12-26T11:19:26.770Z,92822.22
2022-12-26T11:22:22.460Z,92827.38
2022-12-26T11:25:18.435Z,92819.25
2022-12-26T11:27:52.773Z,92810.16
2022-12-26T11:30:30.326Z,92816.06
2022-12-26T11:33:24.411Z,92818.13
2022-12-26T11:36:10.644Z,92811.19
2022-12-26T11:38:49.783Z,92816.66
2022-12-26T11:41:39.762Z,92814.63
2022-12-26T11:44:17.611Z,92807.44
2022-12-26T11:46:54.773Z,92807.72
2022-12-26T11:49:31.873Z,92806.56
2022-12-26T11:52:34.291Z,92806.59
2022-12-26T11:55:27.076Z,92800.09
2022-12-26T11:58:05.490Z,92801.63
2022-12-26T12:00:40.506Z,92778.94
2022-12-26T12:03:15.887Z,92798.22
2022-12-26T12:05:54.869Z,92769.72
2022-12-26T12:08:36.765Z,92793.69
2022-12-26T12:11:20.622Z,92787.09
2022-12-26T12:14:12.356Z,92778.44
2022-12-26T12:16:54.046Z,92776.63
2022-12-26T12:19:43.958Z,92778.94
2022-12-26T12:22:35.128Z,92780.59
2022-12-26T12:25:36.711Z,92774.28
2022-12-26T12:28:28.120Z,92782.72
2022-12-26T12:31:07.950Z,92779.91
2022-12-26T12:33:49.266Z,92779.34
2022-12-26T12:36:28.819Z,92772.63
2022-12-26T12:39:10.309Z,92763.63
2022-12-26T12:42:05.608Z,92777.41
2022-12-26T12:44:56.912Z,92773.22
2022-12-26T12:47:40.101Z,92778.06
2022-12-26T12:50:22.802Z,92781.47
2022-12-26T12:53:05.168Z,92776.44
2022-12-26T12:55:59.206Z,92776.44
2022-12-26T12:58:41.178Z,92774.47
2022-12-26T13:01:18.509Z,92772.47
2022-12-26T13:03:57.628Z,92775.84
2022-12-26T13:06:36.180Z,92784.38
2022-12-26T13:09:14.964Z,92779.22
2022-12-26T13:11:52.277Z,92779.41
2022-12-26T13:14:28.684Z,92778.94
2022-12-26T13:17:05.892Z,92773.13
2022-12-26T13:19:48.647Z,92790.09
2022-12-26T13:22:26.688Z,92783.66
2022-12-26T13:25:01.493Z,92790.16
2022-12-26T13:27:37.740Z,92791.97
2022-12-26T13:30:14.998Z,92785.00
2022-12-26T13:32:48.133Z,92776.00
2022-12-26T13:35:55.419Z,92775.41
2022-12-26T13:39:00.996Z,92775.03
2022-12-26T13:41:53.219Z,92778.50
2022-12-26T13:44:26.904Z,92777.97
2022-12-26T13:47:00.221Z,92784.25
2022-12-26T13:49:35.751Z,92775.00
2022-12-26T13:52:31.259Z,92763.53
2022-12-26T13:55:41.454Z,92777.34
2022-12-26T13:58:48.772Z,92785.50
2022-12-26T14:01:36.422Z,92788.81
2022-12-26T14:04:31.458Z,92778.03
2022-12-26T14:07:21.071Z,92782.69
2022-12-26T14:10:02.861Z,92777.94
2022-12-26T14:12:46.477Z,92761.75
2022-12-26T14:15:29.453Z,92773.50
2022-12-26T14:18:32.588Z,92762.81
2022-12-26T14:21:39.839Z,92781.88
2022-12-26T14:24:24.555Z,92777.59
2022-12-26T14:27:16.130Z,92780.75
2022-12-26T14:29:58.868Z,92781.16
2022-12-26T14:32:41.600Z,92785.31
2022-12-26T14:35:26.351Z,92786.72
2022-12-26T14:38:11.752Z,92787.69
2022-12-26T14:40:58.674Z,92794.31
2022-12-26T14:43:37.989Z,92774.63
2022-12-26T14:46:43.696Z,92788.19
2022-12-26T14:49:23.044Z,92791.44
2022-12-26T14:52:15.537Z,92799.88
2022-12-26T14:54:51.481Z,92806.97
2022-12-26T14:57:45.838Z,92805.81
2022-12-26T15:00:35.131Z,92806.19
2022-12-26T15:03:30.150Z,92805.00
2022-12-26T15:06:37.272Z,92800.16
2022-12-26T15:09:23.151Z,92797.66
2022-12-26T15:12:31.314Z,92796.00
2022-12-26T15:15:31.926Z,92779.75
2022-12-26T15:18:26.661Z,92776.97
2022-12-26T15:21:24.679Z,92769.78
2022-12-26T15:24:22.763Z,92772.97
2022-12-26T15:27:41.128Z,92775.41
2022-12-26T15:30:20.224Z,92773.97
2022-12-26T15:33:01.432Z,92778.28
2022-12-26T15:35:39.033Z,92778.06
2022-12-26T15:38:19.722Z,92784.41
2022-12-26T15:40:59.604Z,92779.59
2022-12-26T15:43:48.909Z,92782.94
2022-12-26T15:46:26.956Z,92772.50
2022-12-26T15:49:24.554Z,92782.47
2022-12-26T15:52:05.536Z,92781.44
2022-12-26T15:55:13.392Z,92782.06
2022-12-26T15:57:54.417Z,92783.34
2022-12-26T16:00:29.807Z,92790.41
2022-12-26T16:03:28.814Z,92786.75
2022-12-26T16:06:19.581Z,92797.44
2022-12-26T16:09:18.733Z,92796.91
2022-12-26T16:11:55.372Z,92786.56
2022-12-26T16:14:32.904Z,92803.72
2022-12-26T16:17:21.857Z,92800.34
2022-12-26T16:19:55.549Z,92805.78
2022-12-26T16:22:48.695Z,92805.78
2022-12-26T16:25:23.636Z,92807.34
2022-12-26T16:27:57.935Z,92806.03
2022-12-26T16:30:35.594Z,92808.41
2022-12-26T16:33:08.261Z,92805.28
2022-12-26T16:35:42.119Z,92798.25
2022-12-26T16:38:17.971Z,92812.53
2022-12-26T16:40:51.835Z,92808.63
2022-12-26T16:43:27.747Z,92799.56
2022-12-26T16:46:04.281Z,92806.31
2022-12-26T16:48:36.852Z,92827.63
2022-12-26T16:51:31.957Z,92824.47
2022-12-26T16:54:17.011Z,92827.81
2022-12-26T16:56:53.419Z,92834.81
2022-12-26T16:59:34.519Z,92834.56
2022-12-26T17:02:15.269Z,92834.75
2022-12-26T17:04:58.388Z,92834.78
2022-12-26T17:07:32.731Z,92835.53
2022-12-26T17:10:12.320Z,92835.78
2022-12-26T17:12:47.280Z,92828.25
2022-12-26T17:15:22.589Z,92832.94
2022-12-26T17:17:55.144Z,92827.44
2022-12-26T17:20:34.729Z,92833.13
2022-12-26T17:23:33.709Z,92833.88
2022-12-26T17:26:23.524Z,92831.00
2022-12-26T17:28:55.781Z,92832.06
2022-12-26T17:31:34.431Z,92834.91
2022-12-26T17:34:12.682Z,92828.94
2022-12-26T17:37:17.761Z,92825.28
2022-12-26T17:39:37.402Z,92830.19
2022-12-26T17:42:13.267Z,92830.19
2022-12-26T17:44:45.819Z,92827.56
2022-12-26T17:47:21.670Z,92830.16
2022-12-26T17:49:55.472Z,92821.31
2022-12-26T17:52:29.128Z,92820.78
2022-12-26T17:55:03.887Z,92805.13
2022-12-26T17:57:37.085Z,92818.41
2022-12-26T18:00:16.106Z,92816.56
2022-12-26T18:02:48.956Z,92818.63
2022-12-26T18:05:21.749Z,92817.47
2022-12-26T18:07:56.029Z,92805.59
2022-12-26T18:10:32.891Z,92789.44
2022-12-26T18:13:09.599Z,92805.56
2022-12-26T18:15:42.012Z,92794.16
2022-12-26T18:18:23.252Z,92797.75
2022-12-26T18:20:55.791Z,92798.25
2022-12-26T18:23:28.565Z,92798.25
2022-12-26T18:26:02.969Z,92797.63
2022-12-26T18:28:36.201Z,92790.38
2022-12-26T18:31:12.175Z,92789.59
2022-12-26T18:33:44.824Z,92797.91
2022-12-26T18:36:17.812Z,92795.09
2022-12-26T18:38:50.254Z,92794.56
2022-12-26T18:41:24.442Z,92787.34
2022-12-26T18:43:59.146Z,92791.97
2022-12-26T18:46:31.796Z,92781.88
2022-12-26T18:49:06.191Z,92776.75
2022-12-26T18:51:39.823Z,92772.34
2022-12-26T18:54:12.501Z,92778.59
2022-12-26T18:56:45.767Z,92785.81
2022-12-26T18:59:19.495Z,92771.31
2022-12-26T19:01:52.417Z,92784.81
2022-12-26T19:04:25.644Z,92787.97
2022-12-26T19:06:59.215Z,92788.97
2022-12-26T19:09:32.392Z,92787.91
2022-12-26T19:12:06.995Z,92793.84
2022-12-26T19:14:42.080Z,92788.06
2022-12-26T19:17:15.198Z,92788.31
2022-12-26T19:19:48.278Z,92791.69
2022-12-26T19:22:21.165Z,92788.31
2022-12-26T19:24:53.750Z,92788.31
2022-12-26T19:27:26.120Z,92784.13
2022-12-26T19:29:59.268Z,92778.94
2022-12-26T19:32:31.599Z,92783.38
2022-12-26T19:35:05.399Z,92777.16
2022-12-26T19:37:38.069Z,92777.16
2022-12-26T19:40:11.769Z,92774.28
2022-12-26T19:42:44.210Z,92770.50
2022-12-26T19:45:17.387Z,92767.41
2022-12-26T19:47:49.744Z,92762.75
2022-12-26T19:50:22.128Z,92771.22
2022-12-26T19:52:54.484Z,92766.88
2022-12-26T19:55:27.042Z,92765.75
2022-12-26T19:57:59.397Z,92771.22
2022-12-26T20:00:32.517Z,92770.69
2022-12-26T20:03:04.945Z,92763.16
2022-12-26T20:05:37.861Z,92772.72
2022-12-26T20:08:10.704Z,92774.72
2022-12-26T20:10:43.064Z,92775.25
2022-12-26T20:13:15.595Z,92774.00
2022-12-26T20:15:48.694Z,92785.09
2022-12-26T20:18:21.000Z,92786.41
2022-12-26T20:20:53.745Z,92779.94
2022-12-26T20:23:26.083Z,92782.50
2022-12-26T20:25:58.607Z,92785.56
2022-12-26T20:28:30.905Z,92778.31
2022-12-26T20:31:11.492Z,92779.56
2022-12-26T20:33:46.872Z,92777.41
2022-12-26T20:36:21.175Z,92771.75
2022-12-26T20:38:56.485Z,92771.75
2022-12-26T20:41:29.873Z,92751.72
2022-12-26T20:44:02.205Z,92759.81
2022-12-26T20:46:35.776Z,92763.94
2022-12-26T20:49:09.187Z,92755.88
2022-12-26T20:51:43.408Z,92761.44
2022-12-26T20:54:18.934Z,92756.72
2022-12-26T20:56:52.514Z,92751.06
2022-12-26T20:59:26.823Z,92750.06
2022-12-26T21:02:00.492Z,92752.44
2022-12-26T21:04:32.936Z,92743.13
2022-12-26T21:07:05.366Z,92748.41
2022-12-26T21:09:42.465Z,92745.41
2022-12-26T21:12:18.265Z,92746.16
2022-12-26T21:14:50.788Z,92748.00
2022-12-26T21:17:23.964Z,92742.03
2022-12-26T21:19:56.244Z,92743.63
2022-12-26T21:22:28.731Z,92739.78
2022-12-26T21:25:01.585Z,92749.91
2022-12-26T21:27:35.152Z,92748.91
2022-12-26T21:30:08.439Z,92749.75
2022-12-26T21:32:41.530Z,92745.66
2022-12-26T21:35:14.226Z,92756.31
2022-12-26T21:37:51.718Z,92749.88
2022-12-26T21:40:26.834Z,92747.00
2022-12-26T21:42:59.230Z,92740.91
2022-12-26T21:45:31.549Z,92743.28
2022-12-26T21:48:04.967Z,92749.72
2022-12-26T21:50:37.565Z,92749.94
2022-12-26T21:53:09.975Z,92747.69
2022-12-26T21:55:42.307Z,92755.44
2022-12-26T21:58:14.704Z,92750.06
2022-12-26T22:00:47.055Z,92749.38
2022-12-26T22:03:38.280Z,92747.00
2022-12-26T22:06:15.855Z,92756.56
2022-12-26T22:08:48.255Z,92752.78
2022-12-26T22:11:53.152Z,92747.38
2022-12-26T22:14:25.516Z,92741.66
2022-12-26T22:16:58.397Z,92751.03
2022-12-26T22:19:31.433Z,92753.41
2022-12-26T22:22:03.766Z,92753.69
2022-12-26T22:24:36.130Z,92746.72
2022-12-26T22:27:08.438Z,92750.09
2022-12-26T22:29:40.809Z,92748.22
2022-12-26T22:32:13.124Z,92750.00
2022-12-26T22:34:46.195Z,92748.47
2022-12-26T22:37:18.542Z,92753.91
2022-12-26T22:39:50.926Z,92752.09
2022-12-26T22:42:31.401Z,92745.25
2022-12-26T22:45:04.422Z,92743.47
2022-12-26T22:47:36.715Z,92746.50
2022-12-26T22:50:14.523Z,92743.63
2022-12-26T22:52:46.894Z,92742.31
2022-12-26T22:55:19.272Z,92744.38
2022-12-26T22:57:52.901Z,92747.19
2022-12-26T23:00:26.175Z,92750.88
2022-12-26T23:02:58.570Z,92748.53
2022-12-26T23:05:32.143Z,92742.59
2022-12-26T23:08:05.772Z,92746.72
2022-12-26T23:10:38.865Z,92745.47
2022-12-26T23:13:12.268Z,92744.97
2022-12-26T23:15:53.584Z,92747.53
2022-12-26T23:18:53.059Z,92747.00
2022-12-26T23:21:44.303Z,92750.13
2022-12-26T23:24:20.019Z,92749.09
2022-12-26T23:26:53.929Z,92728.38
2022-12-26T23:29:44.529Z,92748.91
2022-12-26T23:32:16.883Z,92743.22
2022-12-26T23:34:49.164Z,92735.91
2022-12-26T23:37:22.227Z,92738.69
2022-12-26T23:39:54.554Z,92728.81
2022-12-26T23:42:27.027Z,92733.44
2022-12-26T23:44:59.599Z,92716.28
2022-12-26T23:47:35.353Z,92722.53
2022-12-26T23:50:09.171Z,92726.44
2022-12-26T23:52:43.413Z,92729.88
2022-12-26T23:55:15.778Z,92721.63
2022-12-26T23:57:48.579Z,92717.47
